Time;durP1;ratioP1;P1;durP2;ratioP2;P2;SDS_P1;SDS_P2;PMS_P1;PMS_P2;Temp;Humidity;BMP_temperature;BMP_pressure;BME280_temperature;BME280_humidity;BME280_pressure;Samples;Min_cycle;Max_cycle;Signal;HPM_P1;HPM_P2
2024/02/03 00:00:03;;;;;;;0.40;0.40;;;;;;;6.36;100.00;100511.81;5044697;28;20064;-59
2024/02/03 00:02:31;;;;;;;0.25;0.25;;;;;;;6.41;100.00;100509.41;5044235;28;20047;-59
2024/02/03 00:04:59;;;;;;;0.30;0.30;;;;;;;6.37;100.00;100502.81;5041421;28;20362;-59
2024/02/03 00:07:26;;;;;;;0.30;0.30;;;;;;;6.37;100.00;100502.81;5045709;28;20128;-59
2024/02/03 00:09:53;;;;;;;0.30;0.30;;;;;;;6.35;100.00;100504.84;5047185;28;20060;-59
2024/02/03 00:12:22;;;;;;;0.30;0.30;;;;;;;6.26;100.00;100507.59;5042175;28;20052;-59
2024/02/03 00:14:49;;;;;;;0.30;0.30;;;;;;;6.24;100.00;100509.59;5028415;28;20045;-59
2024/02/03 00:17:16;;;;;;;0.30;0.30;;;;;;;6.31;100.00;100506.19;5045651;28;20203;-59
2024/02/03 00:19:43;;;;;;;0.32;0.32;;;;;;;6.28;100.00;100495.94;5045045;28;20059;-59
2024/02/03 00:22:11;;;;;;;0.28;0.28;;;;;;;6.30;100.00;100496.56;5048663;28;20515;-59
2024/02/03 00:24:38;;;;;;;0.30;0.30;;;;;;;6.26;100.00;100501.41;5026551;28;20487;-59
2024/02/03 00:27:05;;;;;;;0.20;0.20;;;;;;;6.30;100.00;100505.38;5045679;28;20080;-59
2024/02/03 00:29:33;;;;;;;0.30;0.30;;;;;;;6.48;100.00;100507.66;5044244;28;20486;-59
2024/02/03 00:32:00;;;;;;;0.40;0.40;;;;;;;6.48;100.00;100510.34;5043608;28;20049;-59
2024/02/03 00:34:27;;;;;;;0.40;0.40;;;;;;;6.54;100.00;100514.09;5044037;28;20049;-59
2024/02/03 00:36:54;;;;;;;0.30;0.30;;;;;;;6.45;100.00;100505.38;5047258;28;20128;-59
2024/02/03 00:39:22;;;;;;;0.40;0.40;;;;;;;6.59;100.00;100509.88;5043571;28;20586;-59
2024/02/03 00:41:49;;;;;;;0.40;0.40;;;;;;;6.48;100.00;100505.00;5044093;28;20487;-60
2024/02/03 00:44:16;;;;;;;0.40;0.40;;;;;;;6.55;100.00;100511.25;5042889;28;20110;-59
2024/02/03 00:46:43;;;;;;;0.30;0.30;;;;;;;6.52;100.00;100508.16;5046215;28;20062;-59
2024/02/03 00:49:10;;;;;;;0.40;0.40;;;;;;;6.63;100.00;100513.81;5025284;28;20558;-59
2024/02/03 00:51:38;;;;;;;0.30;0.30;;;;;;;6.57;100.00;100511.91;5044395;28;20111;-59
2024/02/03 00:54:05;;;;;;;0.30;0.30;;;;;;;6.59;100.00;100501.91;5043735;28;20072;-59
2024/02/03 00:56:34;;;;;;;0.20;0.20;;;;;;;6.58;100.00;100502.88;5048530;28;20067;-59
2024/02/03 00:59:01;;;;;;;0.30;0.30;;;;;;;6.62;100.00;100509.50;5042481;28;20138;-59
2024/02/03 01:01:29;;;;;;;0.25;0.25;;;;;;;6.60;100.00;100506.19;5040764;28;20438;-59
2024/02/03 01:03:56;;;;;;;0.32;0.32;;;;;;;6.65;100.00;100506.47;5043166;28;20195;-59
2024/02/03 01:06:23;;;;;;;0.30;0.30;;;;;;;6.70;100.00;100509.41;5043843;28;20542;-59
2024/02/03 01:08:50;;;;;;;0.40;0.40;;;;;;;6.69;100.00;100515.75;5041121;28;20040;-60
2024/02/03 01:11:17;;;;;;;0.30;0.30;;;;;;;6.70;100.00;100520.06;5043357;28;20067;-59
2024/02/03 01:13:46;;;;;;;0.32;0.32;;;;;;;6.70;100.00;100520.06;5043711;28;20045;-59
2024/02/03 01:16:13;;;;;;;0.30;0.30;;;;;;;6.65;100.00;100517.13;5043166;28;20045;-59
2024/02/03 01:18:40;;;;;;;0.30;0.30;;;;;;;6.78;100.00;100531.63;5043066;28;20384;-59
2024/02/03 01:21:07;;;;;;;0.30;0.30;;;;;;;6.79;100.00;100530.59;5041411;28;20056;-59
2024/02/03 01:23:34;;;;;;;0.30;0.30;;;;;;;6.75;100.00;100524.00;5025221;28;20052;-59
2024/02/03 01:26:01;;;;;;;0.30;0.30;;;;;;;6.75;100.00;100524.00;5040744;28;20445;-59
2024/02/03 01:28:28;;;;;;;0.30;0.30;;;;;;;6.72;100.00;100525.22;5039435;28;20579;-59
2024/02/03 01:30:57;;;;;;;0.28;0.28;;;;;;;6.81;100.00;100520.59;5041130;28;20075;-59
2024/02/03 01:33:24;;;;;;;0.40;0.40;;;;;;;6.80;100.00;100524.28;5042240;28;20047;-59
2024/02/03 01:35:51;;;;;;;0.25;0.25;;;;;;;6.78;100.00;100520.97;5029151;28;20419;-61
2024/02/03 01:38:18;;;;;;;0.30;0.30;;;;;;;6.79;100.00;100517.28;5043027;28;20442;-59
2024/02/03 01:40:45;;;;;;;0.28;0.28;;;;;;;6.85;100.00;100524.53;5020489;28;20442;-60
2024/02/03 01:43:13;;;;;;;0.30;0.30;;;;;;;6.77;100.00;100522.00;5040640;28;20364;-58
2024/02/03 01:45:40;;;;;;;0.30;0.30;;;;;;;6.81;100.00;100523.25;5035989;28;20483;-59
2024/02/03 01:48:09;;;;;;;0.40;0.40;;;;;;;6.86;100.00;100523.53;5038827;28;20057;-59
2024/02/03 01:50:36;;;;;;;0.40;0.40;;;;;;;6.84;100.00;100521.06;5036798;28;20207;-59
2024/02/03 01:53:05;;;;;;;0.30;0.30;;;;;;;6.83;100.00;100518.56;5023250;28;20040;-59
2024/02/03 01:55:33;;;;;;;0.30;0.30;;;;;;;6.75;100.00;100516.03;5042419;28;20048;-59
2024/02/03 01:58:01;;;;;;;0.30;0.30;;;;;;;6.72;100.00;100516.41;5046889;28;20049;-58
2024/02/03 02:00:28;;;;;;;0.30;0.30;;;;;;;6.72;100.00;100513.72;5042798;28;20045;-58
2024/02/03 02:02:56;;;;;;;0.40;0.40;;;;;;;6.75;100.00;100516.84;5041760;28;20103;-59
2024/02/03 02:05:24;;;;;;;0.30;0.30;;;;;;;6.67;100.00;100509.78;5039508;28;20043;-59
2024/02/03 02:07:51;;;;;;;0.38;0.38;;;;;;;6.63;100.00;100503.16;5040000;28;20080;-58
2024/02/03 02:10:19;;;;;;;0.40;0.40;;;;;;;6.63;100.00;100500.50;5041571;28;20052;-58
2024/02/03 02:12:46;;;;;;;0.38;0.38;;;;;;;6.65;100.00;100510.97;5038065;28;20044;-59
2024/02/03 02:15:13;;;;;;;0.30;0.30;;;;;;;6.67;100.00;100512.44;5044001;28;20049;-58
2024/02/03 02:17:40;;;;;;;0.30;0.30;;;;;;;6.57;100.00;100519.06;5021865;28;20190;-58
2024/02/03 02:20:10;;;;;;;0.30;0.30;;;;;;;6.72;100.00;100519.06;5025347;28;20052;-58
2024/02/03 02:22:37;;;;;;;0.30;0.30;;;;;;;6.80;100.00;100519.78;5041676;28;20049;-58
2024/02/03 02:25:05;;;;;;;0.30;0.30;;;;;;;6.84;100.00;100525.53;5042446;28;20155;-58
2024/02/03 02:27:32;;;;;;;0.30;0.30;;;;;;;6.72;100.00;100521.72;5043311;28;20037;-58
2024/02/03 02:29:59;;;;;;;0.30;0.30;;;;;;;6.72;100.00;100511.88;5020930;28;20436;-58
2024/02/03 02:32:26;;;;;;;0.35;0.35;;;;;;;6.83;100.00;100521.25;5042145;28;20045;-58
2024/02/03 02:34:53;;;;;;;0.28;0.28;;;;;;;6.78;100.00;100516.47;5041181;28;20124;-58
2024/02/03 02:37:22;;;;;;;0.35;0.35;;;;;;;6.83;100.00;100523.91;5039949;28;20897;-58
2024/02/03 02:39:49;;;;;;;0.25;0.25;;;;;;;6.78;100.00;100510.31;5042082;28;20068;-58
2024/02/03 02:42:16;;;;;;;0.30;0.30;;;;;;;6.89;100.00;100512.50;5028588;28;20122;-59
2024/02/03 02:44:43;;;;;;;0.30;0.30;;;;;;;6.83;100.00;100502.59;5042236;28;20064;-58
2024/02/03 02:47:11;;;;;;;0.40;0.40;;;;;;;6.81;100.00;100499.28;5040053;28;20088;-58
2024/02/03 02:49:38;;;;;;;0.30;0.30;;;;;;;6.79;100.00;100501.28;5042614;28;20064;-58
2024/02/03 02:52:05;;;;;;;0.30;0.30;;;;;;;6.80;100.00;100497.63;5037662;28;20151;-58
2024/02/03 02:54:34;;;;;;;0.22;0.22;;;;;;;6.79;100.00;100496.81;5042389;28;20037;-58
2024/02/03 02:57:03;;;;;;;0.30;0.30;;;;;;;6.82;100.00;100503.59;5042091;28;21799;-58
2024/02/03 02:59:31;;;;;;;0.20;0.20;;;;;;;6.78;100.00;100500.47;5040413;28;20102;-58
2024/02/03 03:01:58;;;;;;;0.40;0.40;;;;;;;6.77;100.00;100500.69;5041126;28;20126;-58
2024/02/03 03:04:25;;;;;;;0.20;0.20;;;;;;;6.44;100.00;100498.38;5041838;28;20048;-58
2024/02/03 03:06:52;;;;;;;0.30;0.30;;;;;;;6.28;100.00;100498.59;5041538;28;20037;-57
2024/02/03 03:09:19;;;;;;;0.30;0.30;;;;;;;6.17;100.00;100503.34;5021314;28;20515;-57
2024/02/03 03:11:48;;;;;;;0.40;0.40;;;;;;;6.12;100.00;100503.06;5041203;28;20126;-57
2024/02/03 03:14:15;;;;;;;0.40;0.40;;;;;;;6.18;100.00;100489.03;5041355;28;20100;-58
2024/02/03 03:16:42;;;;;;;0.30;0.30;;;;;;;6.10;100.00;100497.09;5041645;28;20049;-58
2024/02/03 03:19:09;;;;;;;0.25;0.25;;;;;;;6.16;100.00;100491.03;5041229;28;20049;-58
2024/02/03 03:21:36;;;;;;;0.40;0.40;;;;;;;6.08;100.00;100485.81;5040697;28;20052;-58
2024/02/03 03:24:03;;;;;;;0.30;0.30;;;;;;;6.05;100.00;100481.69;5039618;28;20068;-58
2024/02/03 03:26:30;;;;;;;0.30;0.30;;;;;;;6.02;100.00;100479.38;5034129;28;20594;-58
2024/02/03 03:28:59;;;;;;;0.40;0.40;;;;;;;5.98;100.00;100477.25;5034457;28;20049;-58
2024/02/03 03:31:25;;;;;;;0.25;0.25;;;;;;;5.92;100.00;100476.13;5042075;28;20049;-58
2024/02/03 03:33:52;;;;;;;0.40;0.40;;;;;;;6.00;100.00;100477.91;5041590;28;20072;-58
2024/02/03 03:36:19;;;;;;;0.40;0.40;;;;;;;5.99;100.00;100484.22;5041005;28;20518;-58
2024/02/03 03:38:46;;;;;;;0.30;0.30;;;;;;;5.98;100.00;100482.59;5041286;28;20499;-58
2024/02/03 03:41:13;;;;;;;0.30;0.30;;;;;;;5.94;100.00;100486.59;5020764;28;20182;-58
2024/02/03 03:43:40;;;;;;;0.40;0.40;;;;;;;5.99;100.00;100478.91;5041248;28;20484;-58
2024/02/03 03:46:09;;;;;;;0.45;0.45;;;;;;;5.95;100.00;100480.28;5039235;28;20083;-58
2024/02/03 03:48:36;;;;;;;0.30;0.30;;;;;;;5.89;100.00;100476.50;5041015;28;20099;-58
2024/02/03 03:51:03;;;;;;;0.40;0.40;;;;;;;5.86;100.00;100484.00;5036339;28;20041;-59
2024/02/03 03:53:30;;;;;;;0.45;0.45;;;;;;;5.89;100.00;100489.81;5023371;28;20053;-58
2024/02/03 03:55:57;;;;;;;0.32;0.32;;;;;;;5.82;100.00;100481.72;5038476;28;20548;-58
2024/02/03 03:58:24;;;;;;;0.30;0.30;;;;;;;5.81;100.00;100481.88;5036812;28;20581;-58
2024/02/03 04:00:51;;;;;;;0.30;0.30;;;;;;;5.77;100.00;100481.44;5027355;28;20163;-58
2024/02/03 04:03:19;;;;;;;0.40;0.40;;;;;;;5.87;100.00;100488.34;5044344;28;20056;-58
2024/02/03 04:05:46;;;;;;;0.40;0.40;;;;;;;5.71;100.00;100498.09;5044676;28;20041;-58
2024/02/03 04:08:13;;;;;;;0.50;0.50;;;;;;;5.75;100.00;100491.41;5044274;28;20124;-57
2024/02/03 04:10:41;;;;;;;0.40;0.40;;;;;;;5.73;100.00;100482.78;5044299;28;20069;-57
2024/02/03 04:13:08;;;;;;;0.40;0.40;;;;;;;5.73;100.00;100479.31;5042216;28;20399;-58
2024/02/03 04:15:35;;;;;;;0.40;0.40;;;;;;;5.78;100.00;100472.44;5026831;28;20049;-57
2024/02/03 04:18:03;;;;;;;0.40;0.40;;;;;;;5.70;100.00;100475.16;5043916;28;20160;-57
2024/02/03 04:20:31;;;;;;;0.40;0.40;;;;;;;5.71;100.00;100476.81;5041992;28;20091;-57
2024/02/03 04:22:58;;;;;;;0.43;0.43;;;;;;;5.73;100.00;100479.31;5021890;28;20585;-58
2024/02/03 04:25:26;;;;;;;0.40;0.40;;;;;;;5.76;100.00;100473.63;5039076;28;20542;-58
2024/02/03 04:27:54;;;;;;;0.40;0.40;;;;;;;5.76;100.00;100479.75;5008626;28;20404;-59
2024/02/03 04:30:21;;;;;;;0.30;0.30;;;;;;;5.77;100.00;100481.44;5043871;28;20037;-60
2024/02/03 04:32:49;;;;;;;0.45;0.45;;;;;;;5.75;100.00;100464.00;5044748;28;20041;-58
2024/02/03 04:35:16;;;;;;;0.40;0.40;;;;;;;5.72;100.00;100467.84;5044500;28;20438;-59
2024/02/03 04:37:46;;;;;;;0.40;0.40;;;;;;;5.73;100.00;100474.81;5044433;28;20451;-59
2024/02/03 04:40:13;;;;;;;0.40;0.40;;;;;;;5.78;100.00;100461.78;5043008;28;20645;-58
2024/02/03 04:42:40;;;;;;;0.40;0.40;;;;;;;5.75;100.00;100471.97;5043949;28;20033;-59
2024/02/03 04:45:09;;;;;;;0.30;0.30;;;;;;;5.86;100.00;100452.06;5043190;28;20118;-59
2024/02/03 04:47:37;;;;;;;0.40;0.40;;;;;;;5.77;100.00;100449.50;5044788;28;20324;-59
2024/02/03 04:50:05;;;;;;;0.50;0.50;;;;;;;5.77;100.00;100457.47;5043373;28;20079;-60
2024/02/03 04:52:32;;;;;;;0.40;0.40;;;;;;;5.81;100.00;100453.44;5043333;28;20044;-59
2024/02/03 04:55:01;;;;;;;0.40;0.40;;;;;;;5.88;100.00;100444.75;5044847;28;20086;-59
2024/02/03 04:57:29;;;;;;;0.35;0.35;;;;;;;5.87;100.00;100443.09;5044193;28;20514;-59
2024/02/03 04:59:56;;;;;;;0.40;0.40;;;;;;;5.88;100.00;100444.75;5041813;28;20052;-61
2024/02/03 05:02:24;;;;;;;0.50;0.50;;;;;;;5.88;100.00;100439.41;5034673;28;20053;-59
2024/02/03 05:04:51;;;;;;;0.30;0.30;;;;;;;5.90;100.00;100440.88;5033215;28;20055;-59
2024/02/03 05:07:18;;;;;;;0.32;0.32;;;;;;;5.89;100.00;100446.38;5036922;28;20049;-59
2024/02/03 05:09:45;;;;;;;0.40;0.40;;;;;;;5.90;100.00;100438.22;5032166;28;20128;-59
2024/02/03 05:12:13;;;;;;;0.40;0.40;;;;;;;5.87;100.00;100443.91;5040873;28;20423;-59
2024/02/03 05:14:40;;;;;;;0.30;0.30;;;;;;;5.87;100.00;100443.09;5018667;28;20048;-59
2024/02/03 05:17:08;;;;;;;0.40;0.40;;;;;;;5.91;100.00;100439.06;5020374;28;20060;-59
2024/02/03 05:19:35;;;;;;;0.40;0.40;;;;;;;5.86;100.00;100433.44;5037401;28;20115;-59
2024/02/03 05:22:02;;;;;;;0.40;0.40;;;;;;;5.90;100.00;100438.22;5037342;28;20151;-59
2024/02/03 05:24:29;;;;;;;0.40;0.40;;;;;;;5.91;100.00;100441.72;5037315;28;20045;-59
2024/02/03 05:26:56;;;;;;;0.30;0.30;;;;;;;5.95;100.00;100445.69;5039702;28;20045;-59
2024/02/03 05:29:25;;;;;;;0.40;0.40;;;;;;;5.96;100.00;100442.03;5019659;28;20060;-59
2024/02/03 05:31:53;;;;;;;0.35;0.35;;;;;;;5.99;100.00;100441.66;5024234;28;20373;-59
2024/02/03 05:34:20;;;;;;;0.30;0.30;;;;;;;5.88;100.00;100434.91;5041901;28;20037;-59
2024/02/03 05:36:47;;;;;;;0.40;0.40;;;;;;;6.04;100.00;100441.91;5043269;28;20040;-58
2024/02/03 05:39:14;;;;;;;0.30;0.30;;;;;;;6.05;100.00;100447.06;5025226;28;20107;-60
2024/02/03 05:41:41;;;;;;;0.35;0.35;;;;;;;5.97;100.00;100443.69;5021969;28;20048;-59
2024/02/03 05:44:08;;;;;;;0.30;0.30;;;;;;;5.97;100.00;100447.16;5042624;28;20088;-59
2024/02/03 05:46:37;;;;;;;0.35;0.35;;;;;;;5.92;100.00;100443.38;5041420;28;20080;-59
2024/02/03 05:49:04;;;;;;;0.40;0.40;;;;;;;5.98;100.00;100450.66;5031915;28;20053;-59
2024/02/03 05:51:31;;;;;;;0.30;0.30;;;;;;;5.99;100.00;100447.81;5040583;28;20048;-59
2024/02/03 05:53:58;;;;;;;0.40;0.40;;;;;;;6.04;100.00;100449.91;5019176;28;20681;-60
2024/02/03 05:56:25;;;;;;;0.30;0.30;;;;;;;6.08;100.00;100456.53;5039536;28;20115;-59
2024/02/03 05:58:52;;;;;;;0.30;0.30;;;;;;;6.05;100.00;100452.41;5036417;28;20045;-59
2024/02/03 06:01:20;;;;;;;0.30;0.30;;;;;;;6.00;100.00;100448.63;5040991;28;20892;-59
2024/02/03 06:03:49;;;;;;;0.30;0.30;;;;;;;6.02;100.00;100451.94;5041923;28;20065;-59
2024/02/03 06:06:16;;;;;;;0.40;0.40;;;;;;;6.13;100.00;100446.16;5044354;28;20065;-59
2024/02/03 06:08:43;;;;;;;0.30;0.30;;;;;;;6.06;100.00;100437.25;5043105;28;20125;-59
2024/02/03 06:11:10;;;;;;;0.40;0.40;;;;;;;6.06;100.00;100439.91;5023489;28;20072;-59
2024/02/03 06:13:37;;;;;;;0.40;0.40;;;;;;;6.04;100.00;100441.91;5042256;28;20049;-59
2024/02/03 06:16:06;;;;;;;0.40;0.40;;;;;;;6.04;100.00;100431.28;5040507;28;20033;-59
2024/02/03 06:18:33;;;;;;;0.30;0.30;;;;;;;6.09;100.00;100434.25;5047227;28;20065;-59
2024/02/03 06:21:04;;;;;;;0.30;0.30;;;;;;;6.03;100.00;100438.44;5040992;28;20119;-59
2024/02/03 06:23:31;;;;;;;0.40;0.40;;;;;;;5.99;100.00;100444.31;5035896;28;20138;-59
2024/02/03 06:25:58;;;;;;;0.38;0.38;;;;;;;6.00;100.00;100438.00;5038535;28;20118;-57
2024/02/03 06:28:26;;;;;;;0.40;0.40;;;;;;;6.01;100.00;100434.31;5037958;28;20053;-59
2024/02/03 06:30:53;;;;;;;0.38;0.38;;;;;;;5.98;100.00;100435.50;5041590;28;20090;-59
2024/02/03 06:33:20;;;;;;;0.40;0.40;;;;;;;5.95;100.00;100425.22;5024501;28;20131;-60
2024/02/03 06:35:47;;;;;;;0.30;0.30;;;;;;;6.02;100.00;100422.69;5040396;28;20045;-59
2024/02/03 06:38:15;;;;;;;0.30;0.30;;;;;;;6.04;100.00;100428.63;5043064;28;20157;-59
2024/02/03 06:40:42;;;;;;;0.28;0.28;;;;;;;6.06;100.00;100431.94;5025884;28;20037;-59
2024/02/03 06:43:09;;;;;;;0.32;0.32;;;;;;;6.04;100.00;100432.13;5042820;28;20564;-59
2024/02/03 06:45:37;;;;;;;0.30;0.30;;;;;;;6.17;100.00;100428.81;5041923;28;20102;-59
2024/02/03 06:48:04;;;;;;;0.30;0.30;;;;;;;6.06;100.00;100421.28;5040195;28;20057;-59
2024/02/03 06:50:32;;;;;;;0.38;0.38;;;;;;;6.07;100.00;100425.59;5042189;28;20414;-57
2024/02/03 06:52:59;;;;;;;0.38;0.38;;;;;;;6.05;100.00;100424.97;5026959;28;20041;-57
2024/02/03 06:55:27;;;;;;;0.32;0.32;;;;;;;6.10;100.00;100427.91;5042145;28;20045;-60
2024/02/03 06:57:54;;;;;;;0.40;0.40;;;;;;;6.05;100.00;100430.28;5041986;28;20147;-60
2024/02/03 07:00:21;;;;;;;0.40;0.40;;;;;;;6.06;100.00;100421.28;5041333;28;20053;-60
2024/02/03 07:02:48;;;;;;;0.43;0.43;;;;;;;6.07;100.00;100427.44;5043285;28;20142;-57
2024/02/03 07:05:16;;;;;;;0.40;0.40;;;;;;;6.09;100.00;100430.72;5038763;28;20041;-58
2024/02/03 07:07:43;;;;;;;0.40;0.40;;;;;;;6.11;100.00;100424.22;5019017;28;20050;-58
2024/02/03 07:10:10;;;;;;;0.40;0.40;;;;;;;6.09;100.00;100433.41;5024543;28;20041;-58
2024/02/03 07:12:38;;;;;;;0.45;0.45;;;;;;;6.11;100.00;100429.53;5041318;28;20067;-59
2024/02/03 07:15:08;;;;;;;0.40;0.40;;;;;;;6.11;100.00;100424.22;5040994;28;20052;-59
2024/02/03 07:17:35;;;;;;;0.50;0.50;;;;;;;6.13;100.00;100426.69;5010622;28;20138;-59
2024/02/03 07:20:02;;;;;;;0.30;0.30;;;;;;;6.11;100.00;100421.56;5034519;28;20045;-59
2024/02/03 07:22:30;;;;;;;0.40;0.40;;;;;;;6.29;100.00;100418.53;5042432;28;20099;-59
2024/02/03 07:24:57;;;;;;;0.40;0.40;;;;;;;6.23;100.00;100421.91;5040155;28;20155;-59
2024/02/03 07:27:24;;;;;;;0.38;0.38;;;;;;;6.17;100.00;100420.00;5041546;28;20048;-58
2024/02/03 07:29:52;;;;;;;0.40;0.40;;;;;;;6.16;100.00;100416.50;5042209;28;20570;-58
2024/02/03 07:32:19;;;;;;;0.40;0.40;;;;;;;6.33;100.00;100426.97;5040379;28;20123;-59
2024/02/03 07:34:46;;;;;;;0.40;0.40;;;;;;;6.29;100.00;100420.34;5045060;28;20596;-59
2024/02/03 07:37:14;;;;;;;0.40;0.40;;;;;;;6.28;100.00;100419.53;5042581;28;21029;-59
2024/02/03 07:39:41;;;;;;;0.40;0.40;;;;;;;6.31;100.00;100421.00;5042856;28;20307;-58
2024/02/03 07:42:08;;;;;;;0.40;0.40;;;;;;;6.24;100.00;100412.91;5044559;28;20566;-59
2024/02/03 07:44:36;;;;;;;0.45;0.45;;;;;;;6.36;100.00;100426.59;5027033;28;20291;-59
2024/02/03 07:47:05;;;;;;;0.40;0.40;;;;;;;6.33;100.00;100433.13;5027096;28;20134;-59
2024/02/03 07:49:32;;;;;;;0.30;0.30;;;;;;;6.42;100.00;100431.19;5042512;28;20415;-58
2024/02/03 07:51:59;;;;;;;0.40;0.40;;;;;;;6.46;100.00;100433.31;5041920;28;20123;-58
2024/02/03 07:54:26;;;;;;;0.40;0.40;;;;;;;6.47;100.00;100424.28;5042964;28;20033;-58
2024/02/03 07:56:53;;;;;;;0.40;0.40;;;;;;;6.58;100.00;100420.31;5045286;28;20504;-59
2024/02/03 07:59:20;;;;;;;0.40;0.40;;;;;;;6.51;100.00;100414.06;5042458;28;20729;-58
2024/02/03 08:01:47;;;;;;;0.40;0.40;;;;;;;6.68;100.00;100412.03;5046791;28;20052;-59
2024/02/03 08:04:16;;;;;;;0.30;0.30;;;;;;;6.74;100.00;100413.09;5041942;28;20140;-59
2024/02/03 08:06:43;;;;;;;0.50;0.50;;;;;;;6.78;100.00;100404.53;5045265;28;20045;-58
2024/02/03 08:09:10;;;;;;;0.50;0.50;;;;;;;6.85;100.00;100400.09;5043837;28;20122;-58
2024/02/03 08:11:37;;;;;;;0.40;0.40;;;;;;;6.74;100.00;100397.97;5028158;28;20098;-59
2024/02/03 08:14:04;;;;;;;0.40;0.40;;;;;;;6.84;100.00;100393.16;5025793;28;20491;-59
2024/02/03 08:16:31;;;;;;;0.43;0.43;;;;;;;6.95;100.00;100389.13;5047947;28;20320;-58
2024/02/03 08:18:58;;;;;;;0.43;0.43;;;;;;;6.89;100.00;100384.59;5039380;28;20034;-59
2024/02/03 08:21:26;;;;;;;0.40;0.40;;;;;;;7.50;100.00;100376.88;5025680;28;20175;-58
2024/02/03 08:23:54;;;;;;;0.35;0.35;;;;;;;7.64;100.00;100382.31;5023438;28;20091;-59
2024/02/03 08:26:21;;;;;;;0.38;0.38;;;;;;;7.90;100.00;100379.00;5038434;28;20055;-59
2024/02/03 08:28:48;;;;;;;0.35;0.35;;;;;;;7.76;100.00;100375.41;5044932;28;20052;-58
2024/02/03 08:31:16;;;;;;;0.40;0.40;;;;;;;7.81;100.00;100378.31;5043044;28;20060;-58
2024/02/03 08:33:43;;;;;;;0.40;0.40;;;;;;;8.49;100.00;100380.31;5027507;28;20069;-59
2024/02/03 08:36:10;;;;;;;0.40;0.40;;;;;;;8.79;100.00;100376.28;5029559;28;20131;-58
2024/02/03 08:38:39;;;;;;;0.40;0.40;;;;;;;9.05;100.00;100380.03;5026535;28;20052;-59
2024/02/03 08:41:06;;;;;;;0.22;0.22;;;;;;;8.96;100.00;100375.88;5042644;28;20400;-58
2024/02/03 08:43:33;;;;;;;0.30;0.30;;;;;;;8.90;100.00;100387.41;5043743;28;20171;-58
2024/02/03 08:46:00;;;;;;;0.28;0.28;;;;;;;8.28;100.00;100384.72;5044841;28;20144;-59
2024/02/03 08:48:27;;;;;;;0.20;0.20;;;;;;;8.25;100.00;100377.09;5042152;28;20049;-58
2024/02/03 08:50:54;;;;;;;0.40;0.40;;;;;;;8.61;100.00;100378.69;5043625;28;20452;-59
2024/02/03 08:53:21;;;;;;;0.30;0.30;;;;;;;9.44;100.00;100375.72;5042688;28;20132;-59
2024/02/03 08:55:51;;;;;;;0.30;0.30;;;;;;;9.20;100.00;100383.31;5044340;28;20104;-59
2024/02/03 08:58:18;;;;;;;0.30;0.30;;;;;;;9.31;100.00;100373.03;5005479;28;20507;-59
2024/02/03 09:00:45;;;;;;;0.30;0.30;;;;;;;9.17;100.00;100372.22;5044042;28;20056;-58
2024/02/03 09:03:13;;;;;;;0.30;0.30;;;;;;;9.44;100.00;100378.41;5024647;28;20407;-59
2024/02/03 09:05:40;;;;;;;0.20;0.20;;;;;;;9.33;100.00;100369.13;5042072;28;20048;-59
2024/02/03 09:08:08;;;;;;;0.30;0.30;;;;;;;9.23;100.00;100366.84;5039638;28;20123;-59
2024/02/03 09:10:36;;;;;;;0.22;0.22;;;;;;;9.15;100.00;100364.38;5041723;28;20487;-59
2024/02/03 09:13:04;;;;;;;0.20;0.20;;;;;;;9.04;100.00;100375.72;5044241;28;20044;-59
2024/02/03 09:15:31;;;;;;;0.20;0.20;;;;;;;8.73;100.00;100377.09;5042648;28;20041;-59
2024/02/03 09:17:59;;;;;;;0.20;0.20;;;;;;;8.49;100.00;100386.50;5042318;28;20053;-59
2024/02/03 09:20:26;;;;;;;0.30;0.30;;;;;;;8.40;100.00;100393.03;5049083;28;20051;-59
2024/02/03 09:22:53;;;;;;;0.28;0.28;;;;;;;8.79;100.00;100389.66;5036009;28;20392;-59
2024/02/03 09:25:21;;;;;;;0.25;0.25;;;;;;;8.32;100.00;100394.00;5036131;28;20041;-59
2024/02/03 09:27:48;;;;;;;0.30;0.30;;;;;;;8.60;100.00;100393.91;5042460;28;20045;-59
2024/02/03 09:30:17;;;;;;;0.30;0.30;;;;;;;8.59;100.00;100400.28;5041930;28;20064;-59
2024/02/03 09:32:44;;;;;;;0.30;0.30;;;;;;;8.49;100.00;100399.84;5043151;28;20039;-58
2024/02/03 09:35:12;;;;;;;0.25;0.25;;;;;;;8.62;100.00;100401.75;5043018;28;20049;-59
2024/02/03 09:37:39;;;;;;;0.20;0.20;;;;;;;8.37;100.00;100404.91;5040355;28;20455;-59
2024/02/03 09:40:07;;;;;;;0.30;0.30;;;;;;;8.43;100.00;100390.75;5042493;28;20122;-59
2024/02/03 09:42:37;;;;;;;0.30;0.30;;;;;;;8.26;100.00;100396.63;5041450;28;20547;-58
2024/02/03 09:45:05;;;;;;;0.30;0.30;;;;;;;8.41;100.00;100400.00;5039872;28;20049;-59
2024/02/03 09:47:33;;;;;;;0.30;0.30;;;;;;;8.68;100.00;100406.25;5040756;28;20049;-59
2024/02/03 09:50:02;;;;;;;0.30;0.30;;;;;;;8.71;100.00;100405.88;5036607;28;20053;-59
2024/02/03 09:52:29;;;;;;;0.20;0.20;;;;;;;8.57;100.00;100420.22;5040706;28;20476;-59
2024/02/03 09:54:56;;;;;;;0.30;0.30;;;;;;;8.88;100.00;100419.69;5038375;28;20115;-59
2024/02/03 09:57:23;;;;;;;0.20;0.20;;;;;;;8.74;100.00;100421.53;5040960;28;20049;-59
2024/02/03 09:59:51;;;;;;;0.30;0.30;;;;;;;8.67;100.00;100420.66;5043215;28;20560;-59
2024/02/03 10:02:18;;;;;;;0.38;0.38;;;;;;;8.71;100.00;100427.28;5041582;28;20107;-59
2024/02/03 10:04:48;;;;;;;0.30;0.30;;;;;;;8.64;100.00;100431.75;5042303;28;20450;-59
2024/02/03 10:07:18;;;;;;;0.30;0.30;;;;;;;8.66;100.00;100435.03;5039389;28;20073;-58
2024/02/03 10:09:45;;;;;;;0.20;0.20;;;;;;;8.49;100.00;100433.78;5044814;28;20052;-59
2024/02/03 10:12:17;;;;;;;0.30;0.30;;;;;;;8.49;100.00;100439.94;5020702;28;20310;-59
2024/02/03 10:14:45;;;;;;;0.30;0.30;;;;;;;8.53;100.00;100438.50;5042306;28;20041;-59
2024/02/03 10:17:12;;;;;;;0.30;0.30;;;;;;;8.60;100.00;100446.53;5026378;28;20140;-59
2024/02/03 10:19:39;;;;;;;0.22;0.22;;;;;;;8.72;100.00;100441.44;5023577;28;20164;-59
2024/02/03 10:22:09;;;;;;;0.30;0.30;;;;;;;8.61;100.00;100437.50;5036626;28;20079;-59
2024/02/03 10:24:36;;;;;;;0.20;0.20;;;;;;;8.66;100.00;100443.06;5042295;28;20477;-59
2024/02/03 10:27:04;;;;;;;0.30;0.30;;;;;;;8.67;100.00;100446.56;5039408;28;20056;-59
2024/02/03 10:29:32;;;;;;;0.20;0.20;;;;;;;8.78;100.00;100438.78;5037963;28;20051;-59
2024/02/03 10:31:59;;;;;;;0.20;0.20;;;;;;;8.81;100.00;100438.41;5040559;28;20136;-59
2024/02/03 10:34:27;;;;;;;0.30;0.30;;;;;;;8.75;100.00;100441.88;5021817;28;20061;-59
2024/02/03 10:36:54;;;;;;;0.30;0.30;;;;;;;8.72;100.00;100439.59;5041150;28;20045;-59
2024/02/03 10:39:24;;;;;;;0.20;0.20;;;;;;;8.68;100.00;100438.34;5039597;28;20181;-59
2024/02/03 10:41:51;;;;;;;0.30;0.30;;;;;;;8.68;100.00;100433.00;5040059;28;20529;-59
2024/02/03 10:44:22;;;;;;;0.30;0.30;;;;;;;8.67;100.00;100422.53;5038584;28;20053;-59
2024/02/03 10:46:51;;;;;;;0.20;0.20;;;;;;;8.75;100.00;100423.16;5040169;28;20060;-59
2024/02/03 10:49:19;;;;;;;0.35;0.35;;;;;;;8.47;100.00;100430.47;5021090;28;20044;-59
2024/02/03 10:51:50;;;;;;;0.30;0.30;;;;;;;8.64;100.00;100439.78;5021888;28;20388;-59
2024/02/03 10:54:19;;;;;;;0.30;0.30;;;;;;;8.42;100.00;100437.22;5038246;28;20141;-59
2024/02/03 10:56:49;;;;;;;0.30;0.30;;;;;;;8.57;100.00;100438.94;5040076;28;20334;-59
2024/02/03 10:59:20;;;;;;;0.20;0.20;;;;;;;8.53;100.00;100429.66;5037559;28;20818;-59
2024/02/03 11:01:48;;;;;;;0.30;0.30;;;;;;;8.58;100.00;100436.03;5036987;28;20045;-58
2024/02/03 11:04:16;;;;;;;0.30;0.30;;;;;;;8.59;100.00;100431.53;5036322;28;20067;-59
2024/02/03 11:06:47;;;;;;;0.20;0.20;;;;;;;8.41;100.00;100438.25;5044103;28;20480;-59
2024/02/03 11:09:14;;;;;;;;;;;;;;;8.74;100.00;100437.56;5046533;28;20090;-59
2024/02/03 11:11:42;;;;;;;0.30;0.30;;;;;;;8.53;100.00;100433.16;5046513;28;19934;-59
2024/02/03 11:14:15;;;;;;;0.30;0.30;;;;;;;8.38;100.00;100425.25;5043101;28;20494;-59
2024/02/03 11:16:43;;;;;;;0.20;0.20;;;;;;;8.42;100.00;100425.72;5046256;28;20053;-59
2024/02/03 11:19:11;;;;;;;0.25;0.25;;;;;;;8.50;100.00;100424.72;5028201;28;20140;-60
2024/02/03 11:21:44;;;;;;;0.20;0.20;;;;;;;8.56;100.00;100423.91;5046263;28;20144;-58
2024/02/03 11:24:11;;;;;;;0.20;0.20;;;;;;;8.37;100.00;100420.94;5025051;28;20052;-59